Tiempo atmosférico en la estación meteorológica de Sariñena, Depósito Agua, Huesca (302 m.)



Fecha
DESCASC
Temp. máxima en grados centígrados (hora)
DESCASC
Temp. mínima en grados centígrados (hora)
DESCASC
Temp. media en grados centígrados
DESCASC
Racha de viento máxima en m/sg (hora)
DESCASC
Velocidad máxima media en intervalos de 10 minutos(hora)
DESCASC
Precipitaciones diarias en mm
DESCASC
Precipitaciones de 00:00 a 06:00 en mm
DESCASC
Precipitaciones de 06:00 a 12:00 en mm
DESCASC
Precipitaciones de 12:00 a 18:00 en mm
DESCASC
Precipitaciones de 18:00 a 24:00 en mm
DESCASC
29-10-2020 21.1 (16:30) 6.1 (07:20) 13.6 3.61 (13:50) 1.67 (23:40) 0 0 0 0 0
28-10-2020 20.5 (15:10) 6 (08:00) 13.3 6.11 (16:10) 3.33 (16:10) 0 0 0 0 0
27-10-2020 17.2 (16:20) 5.3 (00:00) 11.3 8.61 (10:20) 5 (10:00) 0 0 0 0 0
26-10-2020 14.6 (14:40) 7.6 (00:00) 11.1 18.33 (12:40) 10.83 (12:10) 0.2 0.2 0 0 0
25-10-2020 19.5 (14:10) 6 (00:00) 12.8 6.67 (23:59) 3.61 (23:50) 7.8 0 0 0 7.8
24-10-2020 20.2 (16:50) 7.2 (00:00) 13.7 5.56 (13:20) 2.78 (00:30) 0 0 0 0 0
23-10-2020 20.4 (15:50) 10.9 (00:00) 15.6 10.28 (16:10) 6.39 (16:20) 0 0 0 0 0
22-10-2020 20 (15:00) 14 (00:00) 17 8.89 (18:50) 5.28 (18:50) 0.8 0.8 0 0 0
21-10-2020 24.8 (16:20) 16.3 (00:00) 20.5 13.06 (02:10) 7.78 (02:00) 0 0 0 0 0
20-10-2020 18.7 (16:30) 14.3 (00:00) 16.5 15.28 (16:40) 8.89 (15:40) 0.6 0 0.4 0.2 0
19-10-2020 21.4 (16:20) 3.9 (00:00) 12.6 10.83 (23:40) 6.39 (16:30) 0 0 0 0 0
18-10-2020 20.3 (16:50) 3.3 (00:00) 11.8 3.33 (02:50) 1.94 (05:40) 0 0 0 0 0
17-10-2020 18.6 (17:00) 1.6 (00:00) 10.1 6.94 (15:10) 3.61 (15:30) 0 0 0 0 0
16-10-2020 17.3 (17:10) 2.2 (00:00) 9.7 6.11 (00:10) 3.33 (00:10) 0 0 0 0 0
15-10-2020 16.3 (16:40) 7.8 (00:00) 12 14.72 (10:40) 8.89 (16:40) 0 0 0 0 0
14-10-2020 16 (14:10) 9.3 (00:00) 12.7 17.78 (15:20) 10 (13:40) 0 0 0 0 0
13-10-2020 20.3 (14:40) 10.2 (00:00) 15.2 17.78 (17:50) 10.83 (15:30) 0 0 0 0 0
12-10-2020 19.5 (16:10) 9.4 (00:00) 14.4 13.89 (18:20) 8.33 (18:00) 0 0 0 0 0
11-10-2020 18 (14:30) 9.3 (00:00) 13.7 21.39 (18:40) 12.22 (18:40) 0 0 0 0 0
10-10-2020 22.8 (16:30) 12.4 (00:00) 17.6 15 (20:20) 8.33 (20:40) 0 0 0 0 0
09-10-2020 25.9 (17:10) 12.1 (00:00) 19 3.06 (12:10) 1.67 (12:10) 0 0 0 0 0
08-10-2020 24.9 (17:20) 9.1 (00:00) 17 4.72 (13:20) 2.78 (13:00) 0 0 0 0 0
07-10-2020 23.9 (14:40) 14.8 (00:00) 19.3 16.67 (15:30) 9.44 (13:30) 0 0 0 0 0
06-10-2020 24.2 (17:00) 7.5 (00:00) 15.9 9.72 (16:20) 5.83 (16:20) 0 0 0 0 0
05-10-2020 19.2 (17:40) 7 (00:00) 13.1 11.94 (13:40) 7.5 (12:30) 0 0 0 0 0
04-10-2020 16.8 (15:50) 5.3 (00:00) 11 9.44 (16:30) 4.72 (16:30) 1.4 0 0 1.4 0
03-10-2020 17.5 (18:00) 7.2 (00:00) 12.3 12.5 (16:40) 6.67 (16:40) 0 0 0 0 0
02-10-2020 15 (00:40) 7.8 (00:00) 11.4 15.83 (13:10) 8.61 (12:50) 8 0.4 6.2 1.4 0
01-10-2020 24.7 (14:40) 9.7 (00:00) 17.2 9.72 (14:50) 5.83 (15:20) 0 0 0 0 0

Gráficas

Temp. máximas Temp. mínimas Temp. medias Precipitaciones Rachas de viento máximas Velocidades máximas media en intervalos de 10 minutos

Datos horarios

Fecha y hora oficial Temperatura (ºC) Velocidad del viento (km/h) Dirección del viento Racha (km/h) Dirección de racha Precipitación (mm) Presión (hPa) Tendencia (hPa) Humedad (%)
2020-10-30 23:00:00 10.5 6 Norte 11 Norte 0 -- -- 84
2020-10-30 22:00:00 10.2 4 Noroeste 6 Noroeste 0 -- -- 85
2020-10-30 21:00:00 11.8 2 Norte 6 Oeste 0 -- -- 81
2020-10-30 20:00:00 13.4 3 Oeste 6 Sudoeste 0 -- -- 81
2020-10-30 19:00:00 15.5 2 Este 6 Sudeste 0 -- -- 73
2020-10-30 18:00:00 18.5 0 Calma 2 Norte 0 -- -- 61
2020-10-30 17:00:00 22.5 0 Calma 6 Sur 0 -- -- 52
2020-10-30 16:00:00 22.2 3 Sur 8 Sur 0 -- -- 52
2020-10-30 15:00:00 21.1 3 Oeste 8 Oeste 0 -- -- 53
2020-10-30 14:00:00 19.9 2 Noroeste 8 Norte 0 -- -- 55
2020-10-30 13:00:00 18.7 4 Norte 9 Noroeste 0 -- -- 58
2020-10-30 12:00:00 16.4 2 Noroeste 6 Sudoeste 0 -- -- 67
2020-10-30 11:00:00 13.9 0 Calma 5 Oeste 0 -- -- 78
2020-10-30 10:00:00 10.1 2 Noroeste 6 Noroeste 0 -- -- 89
2020-10-30 09:00:00 7.8 3 Noroeste 6 Norte 0 -- -- 96
2020-10-30 08:00:00 5.2 4 Noroeste 8 Norte 0 -- -- 94
2020-10-30 07:00:00 5.9 4 Norte 8 Norte 0 -- -- 93
2020-10-30 06:00:00 6.5 4 Noroeste 7 Norte 0 -- -- 93
2020-10-30 05:00:00 7.2 4 Norte 10 Norte 0 -- -- 93
2020-10-30 04:00:00 7 4 Noroeste 9 Noroeste 0 -- -- 92
2020-10-30 03:00:00 7.4 0 Calma 10 Norte 0 -- -- 90
2020-10-30 02:00:00 9.2 7 Norte 13 Norte 0 -- -- 88
2020-10-30 01:00:00 8.8 6 Noroeste 9 Norte 0 -- -- 88
2020-10-30 00:00:00 9.4 3 Norte 12 Norte 0 -- -- 86
2020-10-29 23:00:00 10.5 4 Norte 9 Norte 0 -- -- 84
2020-10-29 22:00:00 10.4 3 Noroeste 7 Norte 0 -- -- 84
2020-10-29 21:00:00 11.5 0 Calma 4 Este 0 -- -- 82
2020-10-29 20:00:00 13.5 2 Sudoeste 4 Norte 0 -- -- 80
2020-10-29 19:00:00 15.5 3 Norte 4 Norte 0 -- -- 69
2020-10-29 18:00:00 18.4 3 Norte 5 Este 0 -- -- 59
2020-10-29 17:00:00 20.6 2 Nordeste 9 Este 0 -- -- 50
2020-10-29 16:00:00 21 3 Noroeste 10 Oeste 0 -- -- 49
2020-10-29 15:00:00 20.3 4 Noroeste 10 Oeste 0 -- -- 52
2020-10-29 14:00:00 19.5 5 Noroeste 13 Oeste 0 -- -- 55
2020-10-29 13:00:00 17.9 4 Oeste 10 Oeste 0 -- -- 62
2020-10-29 12:00:00 16.4 4 Sudoeste 11 Sudoeste 0 -- -- 66
2020-10-29 11:00:00 13.9 3 Sudoeste 8 Norte 0 -- -- 77
2020-10-29 10:00:00 11.4 6 Norte 9 Norte 0 -- -- 84
2020-10-29 09:00:00 8.6 0 Calma 6 Sudeste 0 -- -- 94
2020-10-29 08:00:00 6.2 0 Calma 5 Norte 0 -- -- 94
2020-10-29 07:00:00 6.5 2 Noroeste 5 Norte 0 -- -- 93
2020-10-29 06:00:00 8.1 4 Norte 9 Norte 0 -- -- 93
2020-10-29 05:00:00 8 4 Norte 6 Noroeste 0 -- -- 93
2020-10-29 04:00:00 8.3 3 Noroeste 6 Oeste 0 -- -- 93
2020-10-29 03:00:00 8.5 3 Noroeste 5 Noroeste 0 -- -- 92
2020-10-29 02:00:00 9.2 3 Oeste 7 Noroeste 0 -- -- 90
2020-10-29 01:00:00 9.7 0 Calma 5 Norte 0 -- -- 89
2020-10-29 00:00:00 9.6 4 Norte 8 Norte 0 -- -- 88
2020-10-28 23:00:00 10.3 0 Calma 4 Oeste 0 -- -- 86
2020-10-28 22:00:00 11.5 0 Calma 9 Oeste 0 -- -- 82
2020-10-28 21:00:00 12.6 6 Oeste 10 Oeste 0 -- -- 80
2020-10-28 20:00:00 13.7 5 Oeste 10 Oeste 0 -- -- 75
2020-10-28 19:00:00 15.1 5 Oeste 7 Oeste 0 -- -- 72
2020-10-28 18:00:00 17.9 5 Oeste 21 Oeste 0 -- -- 62
2020-10-28 17:00:00 19.9 10 Oeste 22 Oeste 0 -- -- 54
2020-10-28 16:00:00 20.5 9 Oeste 18 Oeste 0 -- -- 53
2020-10-28 15:00:00 20.4 8 Noroeste 17 Sudoeste 0 -- -- 52
2020-10-28 14:00:00 19.4 6 Oeste 15 Sudoeste 0 -- -- 57
2020-10-28 13:00:00 17.7 5 Noroeste 10 Noroeste 0 -- -- 60
2020-10-28 12:00:00 15.9 2 Norte 7 Oeste 0 -- -- 66
2020-10-28 11:00:00 14 2 Nordeste 5 Este 0 -- -- 70
2020-10-28 10:00:00 10.4 2 Este 5 Este 0 -- -- 84
2020-10-28 09:00:00 7.4 2 Nordeste 4 Norte 0 -- -- 92
2020-10-28 08:00:00 6 0 Calma 3 Noroeste 0 -- -- 90
2020-10-28 07:00:00 7 3 Oeste 9 Norte 0 -- -- 90
2020-10-28 06:00:00 7 3 Noroeste 6 Noroeste 0 -- -- 88
2020-10-28 05:00:00 7.3 2 Noroeste 6 Noroeste 0 -- -- 88
2020-10-28 04:00:00 7.7 3 Noroeste 8 Norte 0 -- -- 87
2020-10-28 03:00:00 8 0 Calma 6 Norte 0 -- -- 85
2020-10-28 02:00:00 9 0 Calma 5 Noroeste 0 -- -- 82
2020-10-28 01:00:00 9.8 3 Noroeste 5 Oeste 0 -- -- 81
2020-10-28 00:00:00 10.5 4 Noroeste 7 Noroeste 0 -- -- 76
2020-10-27 23:00:00 10.9 3 Noroeste 6 Noroeste 0 -- -- 75
2020-10-27 22:00:00 11.3 0 Calma 7 Oeste 0 -- -- 73
2020-10-27 21:00:00 12.3 2 Oeste 10 Oeste 0 -- -- 69
2020-10-27 20:00:00 12.5 6 Noroeste 12 Oeste 0 -- -- 66
2020-10-27 19:00:00 13.3 5 Noroeste 12 Noroeste 0 -- -- 61
2020-10-27 18:00:00 14.7 6 Noroeste 17 Noroeste 0 -- -- 55
2020-10-27 17:00:00 16.9 9 Oeste 23 Oeste 0 -- -- 45
2020-10-27 16:00:00 16.9 14 Oeste 28 Oeste 0 -- -- 46
2020-10-27 15:00:00 16.4 15 Oeste 27 Oeste 0 -- -- 49
2020-10-27 14:00:00 15.8 14 Oeste 29 Sudoeste 0 -- -- 48
2020-10-27 13:00:00 15.8 17 Oeste 30 Sudoeste 0 -- -- 49
2020-10-27 12:00:00 14.4 14 Oeste 28 Oeste 0 -- -- 56
2020-10-27 11:00:00 12.7 15 Oeste 31 Oeste 0 -- -- 61
2020-10-27 10:00:00 11.4 18 Oeste 31 Oeste 0 -- -- 67
2020-10-27 09:00:00 9.3 12 Oeste 21 Oeste 0 -- -- 77
2020-10-27 08:00:00 7.7 10 Oeste 19 Sudoeste 0 -- -- 80
2020-10-27 07:00:00 7.5 10 Oeste 17 Oeste 0 -- -- 82
2020-10-27 06:00:00 6.8 8 Oeste 16 Oeste 0 -- -- 85
2020-10-27 05:00:00 7.4 5 Oeste 19 Oeste 0 -- -- 83
2020-10-27 04:00:00 5.9 9 Oeste 15 Oeste 0 -- -- 89
2020-10-27 03:00:00 5.5 10 Noroeste 18 Noroeste 0 -- -- 90
2020-10-27 02:00:00 6.2 8 Noroeste 13 Noroeste 0 -- -- 87
2020-10-27 01:00:00 6.4 5 Oeste 9 Noroeste 0 -- -- 86
2020-10-27 00:00:00 7.6 5 Noroeste 19 Oeste 0 -- -- 80
2020-10-26 23:00:00 8.6 9 Oeste 23 Oeste 0 -- -- 77
2020-10-26 22:00:00 9.3 13 Oeste 26 Noroeste 0 -- -- 72
2020-10-26 21:00:00 10.2 15 Oeste 30 Oeste 0 -- -- 69
2020-10-26 20:00:00 10.6 16 Oeste 31 Oeste 0 -- -- 68
2020-10-26 19:00:00 11 14 Oeste 34 Oeste 0 -- -- 68
2020-10-26 18:00:00 12.3 17 Oeste 43 Noroeste 0 -- -- 63
2020-10-26 17:00:00 14.1 24 Oeste 49 Oeste 0 -- -- 55
2020-10-26 16:00:00 14.5 27 Noroeste 53 Oeste 0 -- -- 54
2020-10-26 15:00:00 14.2 27 Noroeste 52 Noroeste 0 -- -- 55
2020-10-26 14:00:00 14.2 29 Oeste 61 Oeste 0 -- -- 57
2020-10-26 13:00:00 13.5 35 Oeste 66 Oeste 0 -- -- 61
2020-10-26 12:00:00 12.8 35 Oeste 57 Oeste 0 -- -- 61
2020-10-26 11:00:00 11.4 28 Oeste 51 Oeste 0 -- -- 67
2020-10-26 10:00:00 11.1 27 Oeste 50 Oeste 0 -- -- 67
2020-10-26 09:00:00 9.7 23 Oeste 40 Oeste 0 -- -- 73
2020-10-26 08:00:00 8.3 20 Oeste 35 Oeste 0 -- -- 79
2020-10-26 07:00:00 8.1 18 Oeste 32 Oeste 0 -- -- 80
2020-10-26 06:00:00 8.1 14 Oeste 28 Oeste 0 -- -- 82
2020-10-26 05:00:00 8.8 13 Oeste 30 Oeste 0 -- -- 81
2020-10-26 04:00:00 9.3 13 Oeste 30 Oeste 0 -- -- 82
2020-10-26 03:00:00 10.6 15 Oeste 26 Oeste 0 -- -- 83
2020-10-26 02:00:00 11.2 9 Oeste 17 Oeste 0 -- -- 90
2020-10-26 01:00:00 11.8 8 Oeste 19 Oeste 0.2 -- -- 93
2020-10-26 00:00:00 12.7 12 Oeste 24 Oeste 5.8 -- -- 93
2020-10-25 23:00:00 13.1 2 Oeste 14 Oeste 1.6 -- -- 91
2020-10-25 22:00:00 14 10 Oeste 22 Noroeste 0.4 -- -- 82
2020-10-25 21:00:00 15.2 8 Nordeste 19 Noroeste 0 -- -- 70
2020-10-25 20:00:00 16.4 5 Sudeste 20 Este 0 -- -- 59
2020-10-25 19:00:00 16.6 8 Sudeste 17 Este 0 -- -- 59
2020-10-25 18:00:00 17 8 Este 15 Este 0 -- -- 59
2020-10-25 17:00:00 18.1 5 Este 14 Este 0 -- -- 56
2020-10-25 16:00:00 19.2 0 Calma 6 Sudeste 0 -- -- 50
2020-10-25 15:00:00 19.1 4 Oeste 9 Norte 0 -- -- 49
2020-10-25 14:00:00 19.2 3 Sudoeste 12 Sur 0 -- -- 50
2020-10-25 13:00:00 18.2 4 Sudeste 12 Este 0 -- -- 54
2020-10-25 12:00:00 16.8 6 Sudeste 12 Sudeste 0 -- -- 62
2020-10-25 11:00:00 14.8 7 Sudeste 12 Sudeste 0 -- -- 72
2020-10-25 10:00:00 12.9 3 Sudeste 6 Sudeste 0 -- -- 77
2020-10-25 09:00:00 9.9 2 Este 5 Nordeste 0 -- -- 86
2020-10-25 08:00:00 6.2 3 Norte 6 Norte 0 -- -- 91
2020-10-25 07:00:00 6.2 3 Nordeste 9 Norte 0 -- -- 88
2020-10-25 06:00:00 6.6 3 Norte 8 Norte 0 -- -- 90
2020-10-25 05:00:00 7.1 0 Calma 6 Nordeste 0 -- -- 87
2020-10-25 04:00:00 8.6 4 Nordeste 11 Nordeste 0 -- -- 82
2020-10-25 03:00:00 9.4 6 Norte 11 Norte 0 -- -- 84
2020-10-25 02:00:00 9.5 4 Norte 10 Norte 0 -- -- 81
2020-10-25 01:00:00 9.8 4 Norte 6 Norte 0 -- -- 78
2020-10-25 00:00:00 10.7 3 Norte 9 Norte 0 -- -- 75
2020-10-24 23:00:00 10.9 4 Norte 8 Norte 0 -- -- 74
2020-10-24 22:00:00 12.8 3 Noroeste 9 Norte 0 -- -- 68
2020-10-24 21:00:00 13.4 3 Norte 8 Noroeste 0 -- -- 68
2020-10-24 20:00:00 15 4 Norte 6 Norte 0 -- -- 63
2020-10-24 19:00:00 17.2 2 Noroeste 8 Oeste 0 -- -- 54
2020-10-24 18:00:00 19.3 7 Oeste 15 Oeste 0 -- -- 47
2020-10-24 17:00:00 20.1 6 Oeste 14 Noroeste 0 -- -- 45
2020-10-24 16:00:00 19.9 4 Oeste 14 Sudoeste 0 -- -- 46
2020-10-24 15:00:00 19.4 6 Oeste 14 Oeste 0 -- -- 48
2020-10-24 14:00:00 18.4 5 Oeste 20 Oeste 0 -- -- 51
2020-10-24 13:00:00 17 5 Noroeste 14 Oeste 0 -- -- 57
2020-10-24 12:00:00 14.7 5 Oeste 9 Oeste 0 -- -- 68
2020-10-24 11:00:00 12.3 3 Noroeste 9 Noroeste 0 -- -- 76
2020-10-24 10:00:00 9.8 2 Norte 7 Noroeste 0 -- -- 84
2020-10-24 09:00:00 7.3 4 Noroeste 9 Noroeste 0 -- -- 87
2020-10-24 08:00:00 7.5 4 Noroeste 8 Noroeste 0 -- -- 88
2020-10-24 07:00:00 7.4 4 Noroeste 8 Noroeste 0 -- -- 88
2020-10-24 06:00:00 7.5 2 Norte 7 Norte 0 -- -- 86
2020-10-24 05:00:00 8.4 4 Noroeste 7 Norte 0 -- -- 85
2020-10-24 04:00:00 8.5 4 Norte 12 Oeste 0 -- -- 81
2020-10-24 03:00:00 9.2 7 Noroeste 12 Noroeste 0 -- -- 81
2020-10-24 02:00:00 10.5 4 Noroeste 15 Oeste 0 -- -- 76
2020-10-24 01:00:00 11.1 9 Oeste 17 Oeste 0 -- -- 73
2020-10-24 00:00:00 11.3 9 Oeste 15 Oeste 0 -- -- 74
2020-10-23 23:00:00 11 6 Oeste 16 Oeste 0 -- -- 76
2020-10-23 22:00:00 12.4 10 Oeste 16 Oeste 0 -- -- 70
2020-10-23 21:00:00 13.7 8 Oeste 13 Oeste 0 -- -- 65
2020-10-23 20:00:00 15.1 4 Oeste 18 Noroeste 0 -- -- 64
2020-10-23 19:00:00 17.5 9 Oeste 23 Oeste 0 -- -- 50
2020-10-23 18:00:00 19.7 12 Oeste 32 Oeste 0 -- -- 44
2020-10-23 17:00:00 20.1 17 Oeste 37 Oeste 0 -- -- 42
2020-10-23 16:00:00 20.4 17 Oeste 33 Sudoeste 0 -- -- 44
2020-10-23 15:00:00 20 17 Oeste 31 Oeste 0 -- -- 47
2020-10-23 14:00:00 19.2 17 Oeste 35 Oeste 0 -- -- 52
2020-10-23 13:00:00 18.5 17 Oeste 34 Oeste 0 -- -- 55
2020-10-23 12:00:00 17.4 20 Oeste 36 Oeste 0 -- -- 60
2020-10-23 11:00:00 14.1 3 Norte 10 Oeste 0 -- -- 97
2020-10-23 10:00:00 12 3 Noroeste 8 Norte 0 -- -- 97
2020-10-23 09:00:00 11 3 Noroeste 5 Noroeste 0 -- -- 96
2020-10-23 08:00:00 11.2 3 Nordeste 6 Oeste 0 -- -- 95
2020-10-23 07:00:00 11.8 2 Oeste 5 Oeste 0 -- -- 94
2020-10-23 06:00:00 12.7 3 Noroeste 8 Norte 0 -- -- 93
2020-10-23 05:00:00 13.6 3 Norte 4 Norte 0 -- -- 92
2020-10-23 04:00:00 14.2 4 Oeste 5 Oeste 0 -- -- 90
2020-10-23 03:00:00 15 0 Calma 5 Oeste 0 -- -- 88
2020-10-23 02:00:00 15 4 Oeste 6 Noroeste 0 -- -- 88
2020-10-23 01:00:00 15.4 3 Sudeste 11 Este 0 -- -- 85
2020-10-23 00:00:00 15.6 5 Sudeste 12 Este 0 -- -- 83
2020-10-22 23:00:00 15.7 6 Sudeste 23 Este 0 -- -- 81
2020-10-22 22:00:00 16 13 Este 26 Sudeste 0 -- -- 79
2020-10-22 21:00:00 15.9 8 Este 21 Este 0 -- -- 81
2020-10-22 20:00:00 16.3 18 Este 32 Este 0 -- -- 81
2020-10-22 19:00:00 16.7 17 Este 32 Este 0 -- -- 81
2020-10-22 18:00:00 17.3 15 Este 28 Este 0 -- -- 81
2020-10-22 17:00:00 18.5 10 Este 25 Este 0 -- -- 78
2020-10-22 16:00:00 19.6 8 Sudeste 20 Sudeste 0 -- -- 69
2020-10-22 15:00:00 20 14 Este 24 Este 0 -- -- 66
2020-10-22 14:00:00 19.5 9 Sudeste 23 Sudeste 0 -- -- 76
2020-10-22 13:00:00 18.7 5 Este 14 Este 0 -- -- 82
2020-10-22 12:00:00 18.4 8 Sudeste 19 Sudeste 0 -- -- 83
2020-10-22 11:00:00 17 3 Sur 10 Sur 0 -- -- 91
2020-10-22 10:00:00 15.3 0 Calma 18 Sudoeste 0 -- -- 93
2020-10-22 09:00:00 14.3 3 Sur 7 Este 0 -- -- 93
2020-10-22 08:00:00 14.1 0 Calma 6 Oeste 0 -- -- 93
2020-10-22 07:00:00 14.2 2 Noroeste 9 Sudoeste 0 -- -- 92
2020-10-22 06:00:00 15.5 3 Sudoeste 16 Este 0.2 -- -- 87
2020-10-22 05:00:00 15.9 6 Este 18 Este 0 -- -- 85
2020-10-22 04:00:00 14.7 6 Este 16 Sudeste 0.2 -- -- 91
2020-10-22 03:00:00 14.5 5 Oeste 15 Sudoeste 0.4 -- -- 85
2020-10-22 02:00:00 15.9 3 Nordeste 6 Nordeste 0 -- -- 77
2020-10-22 01:00:00 16.1 2 Sudeste 6 Este 0 -- -- 74
2020-10-22 00:00:00 16.4 2 Norte 8 Norte 0 -- -- 72
2020-10-21 23:00:00 16.5 2 Este 7 Sudoeste 0 -- -- 70
2020-10-21 22:00:00 17.5 4 Sudoeste 13 Oeste 0 -- -- 67
2020-10-21 21:00:00 18.6 6 Oeste 16 Oeste 0 -- -- 63
2020-10-21 20:00:00 21.5 5 Sudeste 18 Sudeste 0 -- -- 60
2020-10-21 19:00:00 22.8 7 Este 21 Este 0 -- -- 55
2020-10-21 18:00:00 24.2 10 Este 20 Este 0 -- -- 50
2020-10-21 17:00:00 24.4 10 Este 18 Este 0 -- -- 49
2020-10-21 16:00:00 24.7 8 Este 17 Sudeste 0 -- -- 48
2020-10-21 15:00:00 24.2 9 Este 19 Este 0 -- -- 52
2020-10-21 14:00:00 23.7 7 Este 20 Este 0 -- -- 57
2020-10-21 13:00:00 23.1 14 Este 26 Este 0 -- -- 61
2020-10-21 12:00:00 21.8 14 Sudeste 27 Este 0 -- -- 67
2020-10-21 11:00:00 20 11 Este 18 Este 0 -- -- 73
2020-10-21 10:00:00 17.6 3 Sudeste 19 Este 0 -- -- 80
2020-10-21 09:00:00 17.3 9 Sudeste 30 Este 0 -- -- 79
2020-10-21 08:00:00 17.5 14 Este 35 Este 0 -- -- 77
2020-10-21 07:00:00 17.2 22 Este 44 Este 0 -- -- 77
2020-10-21 06:00:00 17.2 19 Este 42 Este 0 -- -- 77
2020-10-21 05:00:00 16.7 11 Este 24 Este 0 -- -- 79
2020-10-21 04:00:00 17.3 9 Este 44 Este 0 -- -- 77
2020-10-21 03:00:00 17.3 26 Este 47 Este 0 -- -- 77
2020-10-21 02:00:00 17 28 Este 45 Este 0 -- -- 78
2020-10-21 01:00:00 17 23 Este 42 Este 0 -- -- 76
2020-10-21 00:00:00 17 22 Este 51 Este 0 -- -- 75
2020-10-20 23:00:00 17.1 24 Este 49 Este 0 -- -- 72
2020-10-20 22:00:00 17 27 Este 51 Este 0 -- -- 72
2020-10-20 21:00:00 17 23 Este 41 Este 0 -- -- 74
2020-10-20 20:00:00 17 24 Este 45 Este 0 -- -- 71
2020-10-20 19:00:00 17.4 27 Este 50 Este 0 -- -- 67
2020-10-20 18:00:00 17.7 31 Este 53 Este 0 -- -- 71
2020-10-20 17:00:00 18.4 31 Este 55 Este 0 -- -- 71
2020-10-20 16:00:00 18.1 26 Este 50 Este 0 -- -- 72
2020-10-20 15:00:00 18 23 Este 50 Este 0.2 -- -- 76
2020-10-20 14:00:00 17.2 24 Este 43 Este 0 -- -- 82
2020-10-20 13:00:00 17.3 21 Este 42 Este 0 -- -- 80
2020-10-20 12:00:00 17.4 22 Este 42 Nordeste 0.2 -- -- 77
2020-10-20 11:00:00 16.4 20 Este 42 Este 0.2 -- -- 81
2020-10-20 10:00:00 16.6 19 Este 40 Este 0 -- -- 77
2020-10-20 09:00:00 15.9 22 Este 40 Este 0 -- -- 79
2020-10-20 08:00:00 16.1 17 Este 36 Este 0 -- -- 79
2020-10-20 07:00:00 16.1 15 Este 42 Este 0 -- -- 80
2020-10-20 06:00:00 15.9 24 Este 49 Este 0 -- -- 78
2020-10-20 05:00:00 15.8 13 Este 27 Este 0 -- -- 78
2020-10-20 04:00:00 15.3 11 Nordeste 31 Nordeste 0 -- -- 76
2020-10-20 03:00:00 15 11 Nordeste 32 Este 0 -- -- 78
2020-10-20 02:00:00 14.7 16 Este 34 Nordeste 0 -- -- 78
2020-10-20 01:00:00 14.4 16 Este 32 Este 0 -- -- 79
2020-10-20 00:00:00 14.5 19 Este 39 Este 0 -- -- 78
2020-10-19 23:00:00 14.8 17 Este 32 Este 0 -- -- 76
2020-10-19 22:00:00 15.7 20 Este 37 Este 0 -- -- 74
2020-10-19 21:00:00 15.9 14 Este 24 Este 0 -- -- 68
2020-10-19 20:00:00 17.1 17 Este 31 Este 0 -- -- 62
2020-10-19 19:00:00 18.7 16 Este 34 Sudeste 0 -- -- 60
2020-10-19 18:00:00 20.8 18 Este 37 Este 0 -- -- 53
2020-10-19 17:00:00 21.4 20 Este 37 Este 0 -- -- 51
2020-10-19 16:00:00 21.2 20 Este 37 Este 0 -- -- 54
2020-10-19 15:00:00 20.2 18 Este 37 Este 0 -- -- 55
2020-10-19 14:00:00 18.9 21 Este 38 Sudeste 0 -- -- 61
2020-10-19 13:00:00 17.8 16 Este 30 Este 0 -- -- 65
2020-10-19 12:00:00 13.2 0 Calma 8 Este 0 -- -- 67
2020-10-19 11:00:00 9.5 0 Calma 3 Oeste 0 -- -- 76
2020-10-19 10:00:00 7.7 0 Calma 4 Oeste 0 -- -- 85
2020-10-19 09:00:00 5.1 5 Norte 8 Norte 0 -- -- 90
2020-10-19 08:00:00 3.9 0 Calma 4 Oeste 0 -- -- 88
2020-10-19 07:00:00 4.4 4 Oeste 8 Oeste 0 -- -- 87
2020-10-19 06:00:00 4.8 2 Noroeste 7 Norte 0 -- -- 86
2020-10-19 05:00:00 5 3 Noroeste 8 Oeste 0 -- -- 86
2020-10-19 04:00:00 5.8 2 Norte 8 Norte 0 -- -- 82
2020-10-19 03:00:00 6 0 Calma 4 Oeste 0 -- -- 81
2020-10-19 02:00:00 6.4 0 Calma 4 Norte 0 -- -- 80
2020-10-19 01:00:00 8 0 Calma 9 Norte 0 -- -- 74
2020-10-19 00:00:00 9.4 6 Norte 11 Norte 0 -- -- 69
2020-10-18 23:00:00 9.5 0 Calma 6 Noroeste 0 -- -- 68
2020-10-18 22:00:00 11.2 0 Calma 6 Este 0 -- -- 64
2020-10-18 21:00:00 13.4 3 Este 9 Este 0 -- -- 54
2020-10-18 20:00:00 14.9 5 Este 7 Este 0 -- -- 49
2020-10-18 19:00:00 17.8 2 Este 6 Este 0 -- -- 47
2020-10-18 18:00:00 19.3 2 Norte 5 Norte 0 -- -- 42
2020-10-18 17:00:00 20.3 3 Noroeste 9 Noroeste 0 -- -- 37
2020-10-18 16:00:00 19.6 3 Noroeste 12 Noroeste 0 -- -- 38
2020-10-18 15:00:00 18.7 4 Noroeste 10 Oeste 0 -- -- 38
2020-10-18 14:00:00 17.3 2 Oeste 6 Sur 0 -- -- 44
2020-10-18 13:00:00 15.8 4 Este 8 Sudeste 0 -- -- 49
2020-10-18 12:00:00 13.1 4 Sur 9 Sudeste 0 -- -- 60
2020-10-18 11:00:00 8.9 3 Noroeste 7 Noroeste 0 -- -- 73
2020-10-18 10:00:00 5.6 3 Noroeste 8 Oeste 0 -- -- 83
2020-10-18 09:00:00 3.8 0 Calma 8 Noroeste 0 -- -- 87
2020-10-18 08:00:00 3.7 2 Noroeste 10 Noroeste 0 -- -- 84
2020-10-18 07:00:00 4.4 4 Norte 8 Norte 0 -- -- 83
2020-10-18 06:00:00 4.6 0 Calma 12 Norte 0 -- -- 83
2020-10-18 05:00:00 4.2 4 Norte 10 Norte 0 -- -- 84
2020-10-18 04:00:00 4.9 0 Calma 6 Norte 0 -- -- 81
2020-10-18 03:00:00 6.5 6 Norte 12 Norte 0 -- -- 75
2020-10-18 02:00:00 7.3 5 Norte 10 Norte 0 -- -- 74
2020-10-18 01:00:00 7.6 5 Norte 7 Norte 0 -- -- 76
2020-10-18 00:00:00 9.1 4 Noroeste 11 Noroeste 0 -- -- 71
2020-10-17 23:00:00 10.3 3 Norte 12 Oeste 0 -- -- 66
2020-10-17 22:00:00 11.6 5 Noroeste 11 Oeste 0 -- -- 64
2020-10-17 21:00:00 12.7 5 Noroeste 10 Oeste 0 -- -- 56
2020-10-17 20:00:00 14.4 7 Oeste 15 Oeste 0 -- -- 51
2020-10-17 19:00:00 16.6 8 Oeste 24 Oeste 0 -- -- 45
2020-10-17 18:00:00 18.2 9 Oeste 21 Oeste 0 -- -- 40
2020-10-17 17:00:00 18.6 11 Oeste 23 Oeste 0 -- -- 38
2020-10-17 16:00:00 18 13 Oeste 25 Oeste 0 -- -- 39
2020-10-17 15:00:00 17.3 13 Oeste 23 Oeste 0 -- -- 41
2020-10-17 14:00:00 15.5 5 Oeste 12 Noroeste 0 -- -- 49
2020-10-17 13:00:00 13.4 4 Sudoeste 9 Sudoeste 0 -- -- 57
2020-10-17 12:00:00 10.7 4 Sudoeste 9 Oeste 0 -- -- 67
2020-10-17 11:00:00 8.8 2 Noroeste 8 Norte 0 -- -- 72
2020-10-17 10:00:00 5.4 2 Norte 9 Norte 0 -- -- 84
2020-10-17 09:00:00 2.3 3 Norte 7 Noroeste 0 -- -- 87
2020-10-17 08:00:00 2 0 Calma 5 Noroeste 0 -- -- 88
2020-10-17 07:00:00 2.2 0 Calma 5 Norte 0 -- -- 87
2020-10-17 06:00:00 2.8 2 Noroeste 6 Noroeste 0 -- -- 86
2020-10-17 05:00:00 3 4 Noroeste 8 Norte 0 -- -- 85
2020-10-17 04:00:00 3.8 3 Noroeste 8 Noroeste 0 -- -- 84
2020-10-17 03:00:00 4.3 0 Calma 8 Norte 0 -- -- 83
2020-10-17 02:00:00 5.7 3 Noroeste 8 Noroeste 0 -- -- 80
2020-10-17 01:00:00 5.9 0 Calma 6 Oeste 0 -- -- 77
2020-10-17 00:00:00 7.1 0 Calma 6 Oeste 0 -- -- 74
2020-10-16 23:00:00 8.3 2 Noroeste 7 Noroeste 0 -- -- 69
2020-10-16 22:00:00 9.2 0 Calma 10 Oeste 0 -- -- 65
2020-10-16 21:00:00 10.6 6 Oeste 13 Oeste 0 -- -- 58
2020-10-16 20:00:00 12.2 3 Oeste 6 Sudoeste 0 -- -- 50
2020-10-16 19:00:00 15.8 0 Calma 6 Nordeste 0 -- -- 40
2020-10-16 18:00:00 16.7 4 Norte 9 Norte 0 -- -- 32
2020-10-16 17:00:00 17.2 4 Oeste 13 Oeste 0 -- -- 32
2020-10-16 16:00:00 16.4 5 Norte 14 Oeste 0 -- -- 35
2020-10-16 15:00:00 15.5 6 Oeste 12 Oeste 0 -- -- 38
2020-10-16 14:00:00 14.5 4 Oeste 14 Noroeste 0 -- -- 44
2020-10-16 13:00:00 12.7 5 Noroeste 11 Norte 0 -- -- 55
2020-10-16 12:00:00 10.8 4 Noroeste 13 Oeste 0 -- -- 61
2020-10-16 11:00:00 8.3 7 Noroeste 13 Noroeste 0 -- -- 75
2020-10-16 10:00:00 5.6 0 Calma 8 Nordeste 0 -- -- 84
2020-10-16 09:00:00 2.6 0 Calma 4 Este 0 -- -- 88
2020-10-16 08:00:00 3.9 0 Calma 9 Noroeste 0 -- -- 86
2020-10-16 07:00:00 4 3 Norte 8 Noroeste 0 -- -- 89
2020-10-16 06:00:00 4.3 2 Noroeste 9 Norte 0 -- -- 88
2020-10-16 05:00:00 4.3 4 Noroeste 10 Noroeste 0 -- -- 86
2020-10-16 04:00:00 4.7 4 Noroeste 8 Noroeste 0 -- -- 84
2020-10-16 03:00:00 5.3 4 Norte 7 Noroeste 0 -- -- 81
2020-10-16 02:00:00 5.9 2 Noroeste 7 Noroeste 0 -- -- 78
2020-10-16 01:00:00 6.9 6 Noroeste 22 Oeste 0 -- -- 74
2020-10-16 00:00:00 7.8 14 Oeste 28 Noroeste 0 -- -- 70
2020-10-15 23:00:00 8.6 17 Oeste 30 Oeste 0 -- -- 66
2020-10-15 22:00:00 9.6 18 Oeste 36 Oeste 0 -- -- 63
2020-10-15 21:00:00 10.7 21 Oeste 42 Oeste 0 -- -- 55
2020-10-15 20:00:00 11.8 21 Oeste 40 Oeste 0 -- -- 53
2020-10-15 19:00:00 14 21 Oeste 40 Oeste 0 -- -- 39
2020-10-15 18:00:00 15.3 26 Oeste 51 Oeste 0 -- -- 35
2020-10-15 17:00:00 16.2 30 Oeste 52 Oeste 0 -- -- 38
2020-10-15 16:00:00 16 30 Oeste 50 Oeste 0 -- -- 40
2020-10-15 15:00:00 14.8 29 Oeste 50 Oeste 0 -- -- 41
2020-10-15 14:00:00 15.4 30 Oeste 50 Oeste 0 -- -- 47
2020-10-15 13:00:00 14 30 Oeste 49 Oeste 0 -- -- 53
2020-10-15 12:00:00 13.2 27 Oeste 47 Noroeste 0 -- -- 59
2020-10-15 11:00:00 11.6 24 Oeste 53 Oeste 0 -- -- 61
2020-10-15 10:00:00 10.4 27 Oeste 46 Oeste 0 -- -- 69
2020-10-15 09:00:00 8.8 21 Oeste 49 Noroeste 0 -- -- 75
2020-10-15 08:00:00 8.3 23 Oeste 39 Oeste 0 -- -- 75
2020-10-15 07:00:00 8.2 20 Oeste 42 Noroeste 0 -- -- 76
2020-10-15 06:00:00 8.3 22 Oeste 40 Oeste 0 -- -- 76
2020-10-15 05:00:00 8.4 22 Oeste 40 Oeste 0 -- -- 73
2020-10-15 04:00:00 8.4 17 Oeste 38 Oeste 0 -- -- 73
2020-10-15 03:00:00 8.7 22 Oeste 41 Oeste 0 -- -- 73
2020-10-15 02:00:00 8.6 19 Oeste 36 Oeste 0 -- -- 73
2020-10-15 01:00:00 8.7 17 Oeste 37 Oeste 0 -- -- 74
2020-10-15 00:00:00 9.3 23 Oeste 42 Oeste 0 -- -- 71
2020-10-14 23:00:00 9.8 23 Oeste 47 Oeste 0 -- -- 68
2020-10-14 22:00:00 10.2 20 Oeste 47 Oeste 0 -- -- 66
2020-10-14 21:00:00 10.6 25 Oeste 43 Oeste 0 -- -- 67
2020-10-14 20:00:00 11.4 27 Oeste 53 Oeste 0 -- -- 63
2020-10-14 19:00:00 13.2 28 Oeste 56 Oeste 0 -- -- 53
2020-10-14 18:00:00 14.3 30 Oeste 55 Oeste 0 -- -- 50
2020-10-14 17:00:00 15 29 Oeste 51 Oeste 0 -- -- 49
2020-10-14 16:00:00 15.6 32 Oeste 64 Oeste 0 -- -- 46
2020-10-14 15:00:00 15.6 33 Oeste 54 Oeste 0 -- -- 47
2020-10-14 14:00:00 15.8 31 Oeste 58 Oeste 0 -- -- 46
2020-10-14 13:00:00 15.2 31 Oeste 55 Noroeste 0 -- -- 49
2020-10-14 12:00:00 14.2 32 Oeste 53 Oeste 0 -- -- 55
2020-10-14 11:00:00 13.1 29 Oeste 59 Oeste 0 -- -- 61
2020-10-14 10:00:00 12 27 Oeste 41 Oeste 0 -- -- 69
2020-10-14 09:00:00 10.4 19 Oeste 42 Oeste 0 -- -- 75
2020-10-14 08:00:00 10.1 21 Oeste 41 Oeste 0 -- -- 77
2020-10-14 07:00:00 10.2 19 Oeste 31 Oeste 0 -- -- 76
2020-10-14 06:00:00 10.4 14 Oeste 31 Oeste 0 -- -- 75
2020-10-14 05:00:00 11 12 Oeste 31 Sudoeste 0 -- -- 72
2020-10-14 04:00:00 12.2 17 Oeste 41 Oeste 0 -- -- 66
2020-10-14 03:00:00 12.5 19 Oeste 32 Oeste 0 -- -- 67
2020-10-14 02:00:00 12.7 13 Oeste 30 Noroeste 0 -- -- 68
2020-10-14 01:00:00 13.1 12 Oeste 27 Oeste 0 -- -- 65
2020-10-14 00:00:00 13.4 12 Oeste 33 Oeste 0 -- -- 61
2020-10-13 23:00:00 13.3 19 Oeste 33 Oeste 0 -- -- 61
2020-10-13 22:00:00 12.7 17 Oeste 30 Sudoeste 0 -- -- 62
2020-10-13 21:00:00 13.3 16 Oeste 36 Oeste 0 -- -- 58
2020-10-13 20:00:00 14.6 21 Oeste 41 Noroeste 0 -- -- 55
2020-10-13 19:00:00 16.3 26 Noroeste 57 Noroeste 0 -- -- 50
2020-10-13 18:00:00 17.5 31 Noroeste 64 Noroeste 0 -- -- 46
2020-10-13 17:00:00 18.9 35 Oeste 63 Oeste 0 -- -- 42
2020-10-13 16:00:00 19.4 31 Oeste 62 Oeste 0 -- -- 41
2020-10-13 15:00:00 19.5 30 Oeste 59 Oeste 0 -- -- 45
2020-10-13 14:00:00 20.1 29 Oeste 58 Oeste 0 -- -- 44
2020-10-13 13:00:00 19.3 32 Oeste 59 Oeste 0 -- -- 47
2020-10-13 12:00:00 18 33 Oeste 56 Oeste 0 -- -- 53
2020-10-13 11:00:00 16.7 29 Oeste 48 Oeste 0 -- -- 59
2020-10-13 10:00:00 14.5 28 Oeste 46 Oeste 0 -- -- 71
2020-10-13 09:00:00 12.3 19 Oeste 31 Oeste 0 -- -- 82
2020-10-13 08:00:00 10.3 6 Noroeste 15 Noroeste 0 -- -- 89
2020-10-13 07:00:00 11 7 Norte 18 Noroeste 0 -- -- 86
2020-10-13 06:00:00 11.5 7 Noroeste 28 Oeste 0 -- -- 83
2020-10-13 05:00:00 11.8 17 Oeste 27 Oeste 0 -- -- 80
2020-10-13 04:00:00 -- -- -- -- -- -- -- -- --
2020-10-13 03:00:00 12.7 21 Oeste 42 Oeste 0 -- -- 70
2020-10-13 02:00:00 12.8 19 Oeste 40 Oeste 0 -- -- 66
2020-10-13 01:00:00 -- -- -- -- -- -- -- -- --
2020-10-13 00:00:00 12.4 13 Oeste 32 Oeste 0 -- -- 57
2020-10-12 23:00:00 13.1 20 Oeste 40 Oeste 0 -- -- 56
2020-10-12 22:00:00 13.1 20 Oeste 46 Oeste 0 -- -- 58
2020-10-12 21:00:00 12.9 28 Oeste 50 Oeste 0 -- -- 61
2020-10-12 20:00:00 13.7 27 Oeste 44 Oeste 0 -- -- 58
2020-10-12 19:00:00 16 20 Oeste 50 Oeste 0 -- -- 43
2020-10-12 18:00:00 17.5 30 Oeste 45 Oeste 0 -- -- 41
2020-10-12 17:00:00 18.9 23 Oeste 46 Oeste 0 -- -- 40
2020-10-12 16:00:00 19.4 22 Oeste 37 Oeste 0 -- -- 30
2020-10-12 15:00:00 19.2 20 Oeste 33 Oeste 0 -- -- 33
2020-10-12 14:00:00 18.8 18 Oeste 31 Oeste 0 -- -- 36
2020-10-12 13:00:00 17.6 17 Oeste 31 Oeste 0 -- -- 38
2020-10-12 12:00:00 16.2 18 Oeste 35 Oeste 0 -- -- 44
2020-10-12 11:00:00 13.7 19 Oeste 39 Oeste 0 -- -- 62
2020-10-12 10:00:00 11.8 20 Oeste 40 Oeste 0 -- -- 73
2020-10-12 09:00:00 10 22 Oeste 37 Noroeste 0 -- -- 80
2020-10-12 08:00:00 9.5 21 Oeste 35 Oeste 0 -- -- 80
2020-10-12 07:00:00 9.7 21 Oeste 37 Oeste 0 -- -- 79
2020-10-12 06:00:00 9.7 20 Oeste 34 Oeste 0 -- -- 78
2020-10-12 05:00:00 9.7 20 Oeste 36 Oeste 0 -- -- 79
2020-10-12 04:00:00 -- -- -- -- -- -- -- -- --
2020-10-12 03:00:00 9.9 18 Oeste 31 Oeste 0 -- -- 77
2020-10-12 02:00:00 10.1 17 Oeste 39 Noroeste 0 -- -- 76
2020-10-12 01:00:00 10.3 25 Oeste 39 Oeste 0 -- -- 74
2020-10-12 00:00:00 10.5 19 Oeste 36 Oeste 0 -- -- 72
2020-10-11 23:00:00 11.1 23 Oeste 48 Oeste 0 -- -- 68
2020-10-11 22:00:00 11.6 28 Oeste 51 Oeste 0 -- -- 65
2020-10-11 21:00:00 -- -- -- -- -- -- -- -- --
2020-10-11 20:00:00 -- -- -- -- -- -- -- -- --
2020-10-11 19:00:00 15 32 Oeste 77 Noroeste 0 -- -- 49
2020-10-11 18:00:00 16.3 38 Noroeste 65 Oeste 0 -- -- 45
2020-10-11 17:00:00 17.5 31 Oeste 62 Oeste 0 -- -- 42
2020-10-11 16:00:00 17.8 32 Oeste 60 Oeste 0 -- -- 41
2020-10-11 15:00:00 17.9 31 Oeste 54 Oeste 0 -- -- 45
2020-10-11 14:00:00 17.7 27 Oeste 55 Oeste 0 -- -- 45
2020-10-11 13:00:00 17.2 28 Oeste 46 Oeste 0 -- -- 45
2020-10-11 12:00:00 15.8 24 Oeste 44 Oeste 0 -- -- 45
2020-10-11 11:00:00 13.6 22 Oeste 38 Oeste 0 -- -- 51
2020-10-11 10:00:00 11.7 20 Oeste 36 Oeste 0 -- -- 57
2020-10-11 09:00:00 9.9 16 Oeste 31 Oeste 0 -- -- 63
2020-10-11 08:00:00 9.4 15 Oeste 30 Oeste 0 -- -- 66
2020-10-11 07:00:00 9.9 20 Oeste 34 Oeste 0 -- -- 64
2020-10-11 06:00:00 10.4 20 Oeste 35 Oeste 0 -- -- 62
2020-10-11 05:00:00 11 21 Oeste 34 Oeste 0 -- -- 63
2020-10-11 04:00:00 11.5 19 Oeste 38 Oeste 0 -- -- 67
2020-10-11 03:00:00 12.1 23 Oeste 41 Oeste 0 -- -- 65
2020-10-11 02:00:00 12.1 21 Oeste 36 Oeste 0 -- -- 65
2020-10-11 01:00:00 12.3 19 Oeste 40 Oeste 0 -- -- 64
2020-10-11 00:00:00 12.6 22 Oeste 37 Oeste 0 -- -- 64
2020-10-10 23:00:00 12.9 18 Oeste 35 Oeste 0 -- -- 62
2020-10-10 22:00:00 13.7 17 Oeste 52 Oeste 0 -- -- 61
2020-10-10 21:00:00 15.1 28 Oeste 54 Oeste 0 -- -- 57
2020-10-10 20:00:00 16.3 26 Oeste 53 Oeste 0 -- -- 52
2020-10-10 19:00:00 18.6 26 Oeste 50 Oeste 0 -- -- 46
2020-10-10 18:00:00 20.4 24 Oeste 44 Oeste 0 -- -- 45
2020-10-10 17:00:00 22.6 26 Oeste 46 Oeste 0 -- -- 45
2020-10-10 16:00:00 22.2 21 Oeste 40 Oeste 0 -- -- 50
2020-10-10 15:00:00 21.7 19 Oeste 37 Oeste 0 -- -- 52
2020-10-10 14:00:00 21.2 11 Noroeste 28 Oeste 0 -- -- 51
2020-10-10 13:00:00 19.9 12 Oeste 26 Oeste 0 -- -- 55
2020-10-10 12:00:00 18.4 13 Oeste 23 Oeste 0 -- -- 61
2020-10-10 11:00:00 15.6 10 Oeste 20 Oeste 0 -- -- 76
2020-10-10 10:00:00 13.9 13 Oeste 21 Noroeste 0 -- -- 84
2020-10-10 09:00:00 12.6 10 Oeste 18 Oeste 0 -- -- 89
2020-10-10 08:00:00 12.6 2 Noroeste 15 Oeste 0 -- -- 90
2020-10-10 07:00:00 12.8 9 Oeste 19 Oeste 0 -- -- 91
2020-10-10 06:00:00 13.5 15 Oeste 23 Oeste 0 -- -- 89
2020-10-10 05:00:00 14 9 Oeste 21 Oeste 0 -- -- 88
2020-10-10 04:00:00 14.6 7 Noroeste 18 Oeste 0 -- -- 87
2020-10-10 03:00:00 15.2 7 Noroeste 16 Noroeste 0 -- -- 85
2020-10-10 02:00:00 15.6 6 Noroeste 11 Noroeste 0 -- -- 85
2020-10-10 01:00:00 16.1 3 Noroeste 9 Noroeste 0 -- -- 85
2020-10-10 00:00:00 16.5 6 Noroeste 9 Oeste 0 -- -- 85
2020-10-09 23:00:00 17.3 4 Noroeste 10 Oeste 0 -- -- 84
2020-10-09 22:00:00 18.5 2 Este 9 Sudoeste 0 -- -- 81
2020-10-09 21:00:00 20.3 3 Nordeste 5 Norte 0 -- -- 75
2020-10-09 20:00:00 22.1 3 Nordeste 5 Este 0 -- -- 69
2020-10-09 19:00:00 25.3 0 Calma 5 Sudoeste 0 -- -- 59
2020-10-09 18:00:00 25.5 3 Sudoeste 9 Sudoeste 0 -- -- 57
2020-10-09 17:00:00 25.8 4 Oeste 10 Oeste 0 -- -- 57
2020-10-09 16:00:00 24.9 4 Sudoeste 10 Sudoeste 0 -- -- 60
2020-10-09 15:00:00 23.5 4 Oeste 10 Oeste 0 -- -- 66
2020-10-09 14:00:00 22.4 5 Sudoeste 10 Sur 0 -- -- 69
2020-10-09 13:00:00 20.4 5 Sudoeste 11 Sudoeste 0 -- -- 77
2020-10-09 12:00:00 18.5 6 Sudoeste 10 Sudoeste 0 -- -- 89
2020-10-09 11:00:00 15.7 3 Noroeste 8 Norte 0 -- -- 97
2020-10-09 10:00:00 13.8 3 Nordeste 6 Norte 0 -- -- 96
2020-10-09 09:00:00 12.5 5 Norte 9 Norte 0 -- -- 95
2020-10-09 08:00:00 12.3 3 Noroeste 6 Norte 0 -- -- 94
2020-10-09 07:00:00 12.4 0 Calma 8 Norte 0 -- -- 93
2020-10-09 06:00:00 12.5 5 Norte 8 Norte 0 -- -- 92
2020-10-09 05:00:00 13.5 3 Norte 6 Oeste 0 -- -- 91
2020-10-09 04:00:00 13.7 4 Oeste 7 Oeste 0 -- -- 90
2020-10-09 03:00:00 14.1 3 Norte 8 Norte 0 -- -- 90
2020-10-09 02:00:00 13.8 5 Noroeste 8 Noroeste 0 -- -- 90
2020-10-09 01:00:00 14.6 4 Norte 9 Norte 0 -- -- 86
2020-10-09 00:00:00 15.4 3 Noroeste 6 Nordeste 0 -- -- 85
2020-10-08 23:00:00 16.3 2 Norte 5 Nordeste 0 -- -- 80
2020-10-08 22:00:00 17.6 5 Nordeste 5 Nordeste 0 -- -- 72
2020-10-08 21:00:00 19.2 4 Norte 6 Nordeste 0 -- -- 66
2020-10-08 20:00:00 20.1 0 Calma 7 Este 0 -- -- 66
2020-10-08 19:00:00 22.3 6 Este 13 Este 0 -- -- 58
2020-10-08 18:00:00 24.5 4 Este 8 Nordeste 0 -- -- 48
2020-10-08 17:00:00 24.6 5 Este 10 Este 0 -- -- 49
2020-10-08 16:00:00 24.1 3 Este 9 Sudeste 0 -- -- 52
2020-10-08 15:00:00 22.8 5 Norte 12 Este 0 -- -- 54
2020-10-08 14:00:00 21.2 4 Este 17 Este 0 -- -- 59
2020-10-08 13:00:00 20.4 10 Sudeste 17 Sudeste 0 -- -- 62
2020-10-08 12:00:00 18.4 5 Sudeste 12 Este 0 -- -- 70
2020-10-08 11:00:00 15.8 5 Sur 10 Sur 0 -- -- 77
2020-10-08 10:00:00 12.4 2 Este 6 Oeste 0 -- -- 92
2020-10-08 09:00:00 10.1 3 Sudoeste 8 Oeste 0 -- -- 93
2020-10-08 08:00:00 9.2 5 Norte 8 Norte 0 -- -- 93
2020-10-08 07:00:00 9.8 0 Calma 6 Oeste 0 -- -- 91
2020-10-08 06:00:00 10.4 3 Norte 5 Noroeste 0 -- -- 90
2020-10-08 05:00:00 11.6 0 Calma 8 Noroeste 0 -- -- 87
2020-10-08 04:00:00 12.4 3 Noroeste 8 Norte 0 -- -- 86
2020-10-08 03:00:00 13.3 4 Noroeste 8 Noroeste 0 -- -- 85
2020-10-08 02:00:00 13.5 4 Norte 13 Oeste 0 -- -- 83
2020-10-08 01:00:00 14.4 4 Noroeste 10 Noroeste 0 -- -- 81
2020-10-08 00:00:00 15.7 9 Oeste 16 Oeste 0 -- -- 75
2020-10-07 23:00:00 16.7 10 Oeste 29 Oeste 0 -- -- 71
2020-10-07 22:00:00 17.8 17 Oeste 33 Oeste 0 -- -- 66
2020-10-07 21:00:00 18.5 21 Oeste 42 Oeste 0 -- -- 64
2020-10-07 20:00:00 19.5 24 Oeste 43 Oeste 0 -- -- 62
2020-10-07 19:00:00 21.2 24 Oeste 50 Oeste 0 -- -- 57
2020-10-07 18:00:00 22.3 30 Oeste 53 Oeste 0 -- -- 54
2020-10-07 17:00:00 22.9 33 Oeste 55 Oeste 0 -- -- 52
2020-10-07 16:00:00 23.2 28 Oeste 60 Oeste 0 -- -- 52
2020-10-07 15:00:00 23.9 30 Oeste 59 Oeste 0 -- -- 49
2020-10-07 14:00:00 23.6 31 Oeste 54 Oeste 0 -- -- 52
2020-10-07 13:00:00 22.9 27 Oeste 53 Oeste 0 -- -- 56
2020-10-07 12:00:00 22.2 21 Oeste 47 Oeste 0 -- -- 60
2020-10-07 11:00:00 21 29 Oeste 51 Oeste 0 -- -- 64
2020-10-07 10:00:00 18.8 22 Oeste 42 Oeste 0 -- -- 72
2020-10-07 09:00:00 18.1 22 Oeste 46 Oeste 0 -- -- 75
2020-10-07 08:00:00 16.7 17 Oeste 29 Oeste 0 -- -- 78
2020-10-07 07:00:00 16.4 13 Oeste 28 Oeste 0 -- -- 80
2020-10-07 06:00:00 15.5 13 Oeste 23 Oeste 0 -- -- 82
2020-10-07 05:00:00 15.6 11 Oeste 27 Oeste 0 -- -- 81
2020-10-07 04:00:00 16.2 19 Oeste 28 Oeste 0 -- -- 79
2020-10-07 03:00:00 15.3 12 Oeste 24 Oeste 0 -- -- 84
2020-10-07 02:00:00 14.9 8 Oeste 13 Oeste 0 -- -- 86
2020-10-07 01:00:00 15.3 3 Noroeste 9 Oeste 0 -- -- 84
2020-10-07 00:00:00 16.6 6 Oeste 21 Oeste 0 -- -- 80
2020-10-06 23:00:00 17.4 12 Oeste 24 Oeste 0 -- -- 76
2020-10-06 22:00:00 18.7 13 Oeste 22 Oeste 0 -- -- 71
2020-10-06 21:00:00 19.2 12 Oeste 21 Noroeste 0 -- -- 69
2020-10-06 20:00:00 19.9 12 Oeste 22 Oeste 0 -- -- 66
2020-10-06 19:00:00 22.2 10 Oeste 27 Oeste 0 -- -- 58
2020-10-06 18:00:00 23.5 16 Oeste 32 Oeste 0 -- -- 52
2020-10-06 17:00:00 24.2 18 Oeste 35 Noroeste 0 -- -- 50
2020-10-06 16:00:00 24.1 18 Oeste 32 Oeste 0 -- -- 48
2020-10-06 15:00:00 23.2 15 Oeste 33 Noroeste 0 -- -- 50
2020-10-06 14:00:00 22.4 15 Oeste 29 Oeste 0 -- -- 50
2020-10-06 13:00:00 20.9 13 Oeste 22 Oeste 0 -- -- 55
2020-10-06 12:00:00 18.2 6 Oeste 14 Oeste 0 -- -- 61
2020-10-06 11:00:00 14.2 2 Noroeste 6 Oeste 0 -- -- 74
2020-10-06 10:00:00 10.5 3 Nordeste 4 Noroeste 0 -- -- 86
2020-10-06 09:00:00 9 0 Calma 6 Norte 0 -- -- 89
2020-10-06 08:00:00 8.3 0 Calma 3 Noroeste 0 -- -- 90
2020-10-06 07:00:00 8.1 0 Calma 5 Noroeste 0 -- -- 89
2020-10-06 06:00:00 7.6 4 Norte 6 Norte 0 -- -- 89
2020-10-06 05:00:00 7.9 2 Noroeste 8 Norte 0 -- -- 88
2020-10-06 04:00:00 7.8 3 Norte 6 Norte 0 -- -- 87
2020-10-06 03:00:00 8.2 2 Oeste 6 Noroeste 0 -- -- 88
2020-10-06 02:00:00 8.8 3 Noroeste 6 Noroeste 0 -- -- 85
2020-10-06 01:00:00 9.4 3 Norte 7 Norte 0 -- -- 81
2020-10-06 00:00:00 9.9 4 Norte 5 Norte 0 -- -- 80
2020-10-05 23:00:00 10.8 3 Oeste 5 Sudoeste 0 -- -- 78
2020-10-05 22:00:00 12.1 0 Calma 10 Oeste 0 -- -- 72
2020-10-05 21:00:00 13.4 6 Oeste 13 Oeste 0 -- -- 66
2020-10-05 20:00:00 15.3 6 Oeste 12 Noroeste 0 -- -- 59
2020-10-05 19:00:00 18 7 Noroeste 36 Oeste 0 -- -- 53
2020-10-05 18:00:00 18.5 21 Oeste 40 Noroeste 0 -- -- 48
2020-10-05 17:00:00 18.9 22 Oeste 39 Oeste 0 -- -- 47
2020-10-05 16:00:00 18.5 22 Oeste 43 Oeste 0 -- -- 48
2020-10-05 15:00:00 18.1 24 Oeste 43 Noroeste 0 -- -- 49
2020-10-05 14:00:00 17.3 23 Oeste 43 Oeste 0 -- -- 54
2020-10-05 13:00:00 16.5 24 Oeste 41 Oeste 0 -- -- 55
2020-10-05 12:00:00 15.1 21 Oeste 41 Oeste 0 -- -- 62
2020-10-05 11:00:00 12.7 12 Oeste 22 Oeste 0 -- -- 79
2020-10-05 10:00:00 10.2 9 Oeste 17 Noroeste 0 -- -- 85
2020-10-05 09:00:00 8 7 Noroeste 15 Noroeste 0 -- -- 89
2020-10-05 08:00:00 7.4 0 Calma 19 Noroeste 0 -- -- 89
2020-10-05 07:00:00 7.7 11 Oeste 18 Oeste 0 -- -- 91
2020-10-05 06:00:00 7.1 7 Noroeste 12 Noroeste 0 -- -- 91
2020-10-05 05:00:00 7.6 4 Oeste 12 Oeste 0 -- -- 90
2020-10-05 04:00:00 8.6 7 Oeste 19 Oeste 0 -- -- 88
2020-10-05 03:00:00 9 8 Oeste 13 Oeste 0 -- -- 90
2020-10-05 02:00:00 8.8 5 Sudoeste 13 Sudoeste 0 -- -- 92
2020-10-05 01:00:00 9 6 Oeste 13 Oeste 0 -- -- 89
2020-10-05 00:00:00 8.7 8 Oeste 13 Oeste 0 -- -- 92
2020-10-04 23:00:00 9.4 9 Oeste 17 Oeste 0 -- -- 89
2020-10-04 22:00:00 10 9 Oeste 19 Oeste 0 -- -- 87
2020-10-04 21:00:00 10.9 7 Sudoeste 13 Oeste 0 -- -- 87
2020-10-04 20:00:00 12.4 8 Oeste 17 Oeste 0 -- -- 83
2020-10-04 19:00:00 13 10 Oeste 19 Oeste 0 -- -- 82
2020-10-04 18:00:00 13 6 Oeste 17 Oeste 0 -- -- 85
2020-10-04 17:00:00 12.4 6 Oeste 34 Noroeste 1.4 -- -- 85
2020-10-04 16:00:00 16.7 8 Noroeste 18 Oeste 0 -- -- 60
2020-10-04 15:00:00 15.9 8 Noroeste 23 Oeste 0 -- -- 61
2020-10-04 14:00:00 14 9 Noroeste 21 Noroeste 0 -- -- 72
2020-10-04 13:00:00 13.8 12 Norte 18 Norte 0 -- -- 70
2020-10-04 12:00:00 13.6 5 Noroeste 9 Oeste 0 -- -- 69
2020-10-04 11:00:00 13.2 4 Norte 8 Norte 0 -- -- 74
2020-10-04 10:00:00 10 3 Nordeste 7 Nordeste 0 -- -- 85
2020-10-04 09:00:00 6.3 0 Calma 9 Sudeste 0 -- -- 94
2020-10-04 08:00:00 5.7 2 Este 8 Norte 0 -- -- 92
2020-10-04 07:00:00 6.2 3 Noroeste 11 Oeste 0 -- -- 93
2020-10-04 06:00:00 6.5 3 Norte 5 Norte 0 -- -- 92
2020-10-04 05:00:00 7.2 0 Calma 8 Norte 0 -- -- 89
2020-10-04 04:00:00 8.2 0 Calma 5 Sudeste 0 -- -- 89
2020-10-04 03:00:00 9.2 4 Norte 7 Norte 0 -- -- 85
2020-10-04 02:00:00 10.8 3 Oeste 9 Noroeste 0 -- -- 78
2020-10-04 01:00:00 10.6 2 Noroeste 5 Norte 0 -- -- 81
2020-10-04 00:00:00 11.6 3 Noroeste 14 Noroeste 0 -- -- 72
2020-10-03 23:00:00 12.5 8 Noroeste 16 Noroeste 0 -- -- 64
2020-10-03 22:00:00 12.2 2 Noroeste 5 Noroeste 0 -- -- 70
2020-10-03 21:00:00 13.5 4 Oeste 15 Noroeste 0 -- -- 66
2020-10-03 20:00:00 14.9 10 Oeste 15 Oeste 0 -- -- 59
2020-10-03 19:00:00 16.5 8 Noroeste 30 Oeste 0 -- -- 52
2020-10-03 18:00:00 17.5 14 Oeste 31 Oeste 0 -- -- 47
2020-10-03 17:00:00 16.6 14 Noroeste 45 Oeste 0 -- -- 52
2020-10-03 16:00:00 16.4 11 Noroeste 26 Noroeste 0 -- -- 55
2020-10-03 15:00:00 15.1 9 Noroeste 22 Norte 0 -- -- 62
2020-10-03 14:00:00 14.4 11 Noroeste 26 Oeste 0 -- -- 63
2020-10-03 13:00:00 12.5 12 Noroeste 35 Oeste 0 -- -- 72
2020-10-03 12:00:00 12.2 17 Noroeste 33 Oeste 0 -- -- 68
2020-10-03 11:00:00 11.6 14 Oeste 27 Oeste 0 -- -- 69
2020-10-03 10:00:00 10.2 10 Oeste 23 Oeste 0 -- -- 72
2020-10-03 09:00:00 9.1 6 Sudoeste 18 Oeste 0 -- -- 76
2020-10-03 08:00:00 8.2 10 Oeste 19 Oeste 0 -- -- 76
2020-10-03 07:00:00 7.9 6 Oeste 13 Oeste 0 -- -- 80
2020-10-03 06:00:00 8.5 7 Oeste 17 Noroeste 0 -- -- 75
2020-10-03 05:00:00 8.7 9 Oeste 17 Oeste 0 -- -- 75
2020-10-03 04:00:00 8 5 Noroeste 13 Oeste 0 -- -- 83
2020-10-03 03:00:00 7.2 0 Calma 7 Noroeste 0 -- -- 86
2020-10-03 02:00:00 8.1 3 Noroeste 11 Oeste 0 -- -- 80
2020-10-03 01:00:00 8.5 6 Oeste 12 Oeste 0 -- -- 78
2020-10-03 00:00:00 8 4 Sudoeste 13 Sudoeste 0 -- -- 81
2020-10-02 23:00:00 8.3 10 Oeste 19 Oeste 0 -- -- 80
2020-10-02 22:00:00 9.5 11 Oeste 25 Oeste 0 -- -- 74
2020-10-02 21:00:00 9.9 13 Oeste 25 Oeste 0 -- -- 73
2020-10-02 20:00:00 11.4 16 Oeste 40 Oeste 0 -- -- 67
2020-10-02 19:00:00 12.4 15 Oeste 44 Oeste 0 -- -- 65
2020-10-02 18:00:00 13.6 22 Oeste 46 Oeste 0 -- -- 68
2020-10-02 17:00:00 12.5 19 Oeste 41 Oeste 0 -- -- 77
2020-10-02 16:00:00 11.2 23 Oeste 39 Sudoeste 0 -- -- 80
2020-10-02 15:00:00 10.6 21 Oeste 39 Oeste 0 -- -- 82
2020-10-02 14:00:00 10 11 Oeste 57 Oeste 1.2 -- -- 89
2020-10-02 13:00:00 11 29 Oeste 55 Oeste 0.2 -- -- 84
2020-10-02 12:00:00 14.2 13 Oeste 25 Oeste 1 -- -- 91
2020-10-02 11:00:00 14.1 3 Sudoeste 21 Oeste 4 -- -- 92
2020-10-02 10:00:00 14.4 0 Calma 17 Sudeste 0.4 -- -- 88
2020-10-02 09:00:00 13.7 10 Sudeste 15 Sudeste 0 -- -- 87
2020-10-02 08:00:00 13.4 7 Sudeste 14 Sudeste 0.4 -- -- 87
2020-10-02 07:00:00 13.8 7 Sudeste 15 Sudeste 0.4 -- -- 85
2020-10-02 06:00:00 13.9 10 Sudeste 15 Sudeste 0.2 -- -- 85
2020-10-02 05:00:00 13.9 5 Nordeste 8 Norte 0.2 -- -- 85
2020-10-02 04:00:00 14.1 3 Nordeste 5 Nordeste 0 -- -- 80
2020-10-02 03:00:00 14.6 0 Calma 6 Este 0 -- -- 78
2020-10-02 02:00:00 14.3 6 Norte 11 Norte 0 -- -- 76
2020-10-02 01:00:00 14.7 5 Norte 9 Norte 0 -- -- 76
2020-10-02 00:00:00 14.6 0 Calma 5 Este 0 -- -- 74
2020-10-01 23:00:00 15.6 3 Sudeste 5 Sudoeste 0 -- -- 70
2020-10-01 22:00:00 16.7 3 Sudeste 11 Sudoeste 0 -- -- 66
2020-10-01 21:00:00 18 4 Oeste 6 Oeste 0 -- -- 60
2020-10-01 20:00:00 19 3 Sudeste 15 Oeste 0 -- -- 58
2020-10-01 19:00:00 20.5 11 Oeste 21 Oeste 0 -- -- 53
2020-10-01 18:00:00 22.1 13 Oeste 28 Oeste 0 -- -- 47
2020-10-01 17:00:00 22.5 13 Noroeste 32 Oeste 0 -- -- 46
2020-10-01 16:00:00 23.5 19 Oeste 35 Oeste 0 -- -- 43
2020-10-01 15:00:00 24.2 18 Oeste 35 Oeste 0 -- -- 42
2020-10-01 14:00:00 23.9 20 Oeste 33 Oeste 0 -- -- 45
2020-10-01 13:00:00 22.4 8 Noroeste 22 Oeste 0 -- -- 57
2020-10-01 12:00:00 19.7 13 Oeste 23 Oeste 0 -- -- 65
2020-10-01 11:00:00 16.2 4 Noroeste 11 Noroeste 0 -- -- 74
2020-10-01 10:00:00 13.1 4 Oeste 8 Oeste 0 -- -- 81
2020-10-01 09:00:00 10.8 2 Noroeste 8 Norte 0 -- -- 88
2020-10-01 08:00:00 9.9 3 Noroeste 10 Noroeste 0 -- -- 89
2020-10-01 07:00:00 10.1 0 Calma 7 Oeste 0 -- -- 89
2020-10-01 06:00:00 10.2 3 Norte 5 Nordeste 0 -- -- 88
2020-10-01 05:00:00 10.7 4 Noroeste 10 Sudoeste 0 -- -- 86
2020-10-01 04:00:00 11.7 0 Calma 8 Norte 0 -- -- 85
2020-10-01 03:00:00 11.7 3 Norte 6 Oeste 0 -- -- 85
2020-10-01 02:00:00 12.7 2 Norte 6 Noroeste 0 -- -- 81
2020-10-01 01:00:00 13.6 0 Calma 6 Noroeste 0 -- -- 77
2020-10-01 00:00:00 15.6 6 Norte 11 Norte 0 -- -- 70